Time;durP1;ratioP1;P1;durP2;ratioP2;P2;SDS_P1;SDS_P2;PMS_P1;PMS_P2;Temp;Humidity;BMP_temperature;BMP_pressure;BME280_temperature;BME280_humidity;BME280_pressure;Samples;Min_cycle;Max_cycle;Signal;HPM_P1;HPM_P2
2020/12/20 00:02:22;;;;;;;39.58;25.70;;;;;;;6.63;68.23;101183.53;2361516;81;25700;-84
2020/12/20 00:06:02;;;;;;;40.17;25.13;;;;;;;6.64;68.24;101181.83;2360620;82;25781;-83
2020/12/20 00:10:01;;;;;;;39.03;24.85;;;;;;;6.48;68.21;101149.45;2328921;82;25640;-84
2020/12/20 00:13:56;;;;;;;40.28;25.30;;;;;;;6.64;68.20;101177.95;2339946;83;26226;-85
2020/12/20 00:17:31;;;;;;;36.48;24.98;;;;;;;6.61;68.20;101164.45;2290089;84;25949;-83
2020/12/20 00:20:58;;;;;;;37.80;25.43;;;;;;;6.62;68.17;101177.88;2352945;83;26094;-84
2020/12/20 00:24:34;;;;;;;42.53;25.75;;;;;;;6.61;68.18;101167.04;2356069;83;25654;-85
2020/12/20 00:28:08;;;;;;;41.05;26.40;;;;;;;6.62;68.17;101174.00;2347851;82;25696;-89
2020/12/20 00:36:17;;;;;;;41.98;25.55;;;;;;;6.60;68.14;101181.19;2345102;79;25946;-83
2020/12/20 00:39:59;;;;;;;36.03;23.73;;;;;;;6.60;68.11;101187.26;2359674;81;25991;-90
2020/12/20 00:43:31;;;;;;;39.90;24.95;;;;;;;6.59;68.12;101189.37;2372103;82;25716;-83
2020/12/20 00:46:54;;;;;;;41.90;26.35;;;;;;;6.60;68.12;101185.08;2359953;82;25712;-84
2020/12/20 00:50:51;;;;;;;40.05;24.50;;;;;;;6.60;68.10;101182.48;2350194;81;25990;-83
2020/12/20 00:54:33;;;;;;;42.03;25.97;;;;;;;6.58;68.10;101182.80;2314080;83;25638;-83
2020/12/20 00:58:09;;;;;;;41.70;25.48;;;;;;;6.58;68.11;101173.73;2326738;83;26098;-84
2020/12/20 01:01:30;;;;;;;45.03;26.33;;;;;;;6.57;68.08;101180.62;2350042;82;25605;-84
2020/12/20 01:05:00;;;;;;;44.03;26.17;;;;;;;6.57;68.07;101182.33;2335142;83;26079;-88
2020/12/20 01:08:32;;;;;;;41.83;24.95;;;;;;;6.57;68.06;101179.73;2362369;82;25938;-84
2020/12/20 01:11:59;;;;;;;43.25;25.75;;;;;;;6.56;68.04;101177.96;2304761;83;26029;-83
2020/12/20 01:15:34;;;;;;;40.28;25.25;;;;;;;6.56;68.05;101182.73;2314347;83;26979;-86
2020/12/20 01:19:02;;;;;;;41.28;25.57;;;;;;;6.54;68.05;101177.86;2325196;83;25861;-84
2020/12/20 01:22:32;;;;;;;42.67;27.77;;;;;;;6.54;68.08;101175.69;2394614;80;25744;-83
2020/12/20 01:26:02;;;;;;;39.63;24.92;;;;;;;6.55;68.07;101174.48;2364556;81;25715;-90
2020/12/20 01:29:40;;;;;;;40.43;26.62;;;;;;;6.55;68.08;101168.02;2313828;82;26113;-84
2020/12/20 01:33:02;;;;;;;46.53;27.73;;;;;;;6.56;68.08;101163.30;2389061;81;25935;-88
2020/12/20 01:36:25;;;;;;;42.70;25.55;;;;;;;6.55;68.07;101158.94;2353326;82;25555;-84
2020/12/20 01:39:48;;;;;;;42.73;26.42;;;;;;;6.56;68.07;101158.53;2400652;81;25737;-88
2020/12/20 01:43:13;;;;;;;45.60;27.40;;;;;;;6.56;68.07;101162.01;2399418;81;25403;-83
2020/12/20 01:46:37;;;;;;;40.92;25.02;;;;;;;6.55;68.08;101162.83;2348169;82;25746;-88
2020/12/20 01:50:05;;;;;;;38.48;24.10;;;;;;;6.56;68.07;101159.83;2295442;84;25838;-84
2020/12/20 01:53:30;;;;;;;47.78;27.35;;;;;;;6.55;68.10;101162.83;2418947;80;25361;-84
2020/12/20 01:56:53;;;;;;;42.78;25.23;;;;;;;6.55;68.09;101157.65;2319135;83;25780;-90
2020/12/20 02:00:16;;;;;;;45.50;26.90;;;;;;;6.54;68.10;101148.48;2401941;81;25658;-86
2020/12/20 02:03:40;;;;;;;47.20;27.67;;;;;;;6.54;68.10;101148.48;2403258;81;25625;-84
2020/12/20 02:07:06;;;;;;;42.43;26.73;;;;;;;6.53;68.11;101150.19;2392842;81;25936;-87
2020/12/20 02:10:29;;;;;;;43.73;27.35;;;;;;;6.54;68.11;101149.78;2392717;81;25713;-84
2020/12/20 02:13:52;;;;;;;46.80;25.77;;;;;;;6.53;68.14;101150.19;2344948;83;25515;-84
2020/12/20 02:17:15;;;;;;;42.43;25.50;;;;;;;6.54;68.16;101157.55;2332002;83;25714;-87
2020/12/20 02:20:38;;;;;;;40.80;24.60;;;;;;;6.54;68.16;101156.25;2345241;84;25825;-86
2020/12/20 02:24:01;;;;;;;44.75;25.35;;;;;;;6.54;68.17;101154.95;2332527;82;25716;-84
2020/12/20 02:27:26;;;;;;;45.20;25.23;;;;;;;6.54;68.19;101149.37;2321898;83;25883;-88
2020/12/20 02:30:48;;;;;;;44.18;27.00;;;;;;;6.52;68.20;101149.72;2333499;83;25481;-87
2020/12/20 02:34:22;;;;;;;41.20;24.90;;;;;;;6.53;68.20;101153.19;2332935;83;25433;-83
2020/12/20 02:37:43;;;;;;;47.80;26.40;;;;;;;6.53;68.23;101159.67;2349716;83;25791;-86
2020/12/20 02:41:05;;;;;;;42.15;24.02;;;;;;;6.52;68.23;101151.42;2337111;83;25669;-83
2020/12/20 02:44:27;;;;;;;41.70;24.35;;;;;;;6.50;68.24;101151.32;2343680;83;25670;-84
2020/12/20 02:47:50;;;;;;;45.08;25.70;;;;;;;6.50;68.24;101155.20;2358726;83;25655;-84
2020/12/20 02:51:13;;;;;;;42.48;24.20;;;;;;;6.51;68.27;101150.91;2342733;83;25609;-84
2020/12/20 02:54:36;;;;;;;43.17;25.32;;;;;;;6.50;68.27;101154.32;2399170;81;25567;-87
2020/12/20 02:57:59;;;;;;;38.73;24.12;;;;;;;6.49;68.29;101146.96;2351900;82;25691;-85
2020/12/20 03:01:23;;;;;;;42.65;23.57;;;;;;;6.50;68.29;101143.55;2318201;84;25528;-83
2020/12/20 03:05:07;;;;;;;42.43;24.92;;;;;;;6.51;68.32;101137.55;2332103;82;27018;-83
2020/12/20 03:08:35;;;;;;;42.17;22.65;;;;;;;6.48;68.33;101128.35;2345559;82;25721;-88
2020/12/20 03:11:57;;;;;;;42.60;24.07;;;;;;;6.50;68.34;101121.94;2342144;82;26056;-89
2020/12/20 03:15:34;;;;;;;41.00;23.45;;;;;;;6.51;68.36;101131.48;2363274;81;25687;-83
2020/12/20 03:19:00;;;;;;;41.50;23.52;;;;;;;6.51;68.36;101137.95;2342527;82;25498;-83
2020/12/20 03:22:28;;;;;;;39.08;23.47;;;;;;;6.51;68.36;101132.78;2360864;82;25716;-83
2020/12/20 03:26:20;;;;;;;41.30;22.33;;;;;;;6.56;68.41;101130.03;2578657;75;25677;-88
2020/12/20 03:29:44;;;;;;;36.17;21.40;;;;;;;6.51;68.39;101129.77;2524398;76;25398;-89
2020/12/20 03:33:24;;;;;;;38.53;23.07;;;;;;;6.51;68.42;101134.95;2522989;76;25595;-89
2020/12/20 03:36:48;;;;;;;42.15;24.37;;;;;;;6.52;68.42;101144.53;2546700;76;25467;-88
2020/12/20 03:40:11;;;;;;;38.23;21.52;;;;;;;6.52;68.43;101128.98;2525677;76;25750;-87
2020/12/20 03:43:34;;;;;;;36.15;22.58;;;;;;;6.51;68.43;101130.19;2559020;76;25380;-84
2020/12/20 03:46:56;;;;;;;38.85;21.75;;;;;;;6.52;68.44;101125.52;2444816;79;25790;-83
2020/12/20 03:50:18;;;;;;;38.10;23.92;;;;;;;6.50;68.43;101133.19;2450835;79;25677;-82
2020/12/20 03:53:45;;;;;;;39.63;22.52;;;;;;;6.50;68.45;101125.41;2446495;79;25431;-84
2020/12/20 03:57:11;;;;;;;38.05;21.10;;;;;;;6.51;68.46;101127.19;2400285;79;26135;-85
2020/12/20 04:00:32;;;;;;;35.68;20.80;;;;;;;6.51;68.47;101119.41;2505558;77;26057;-83
2020/12/20 04:04:05;;;;;;;36.08;22.55;;;;;;;6.52;68.47;101128.98;2526594;77;25822;-84
2020/12/20 04:07:38;;;;;;;37.80;23.80;;;;;;;6.53;68.50;101135.05;2407629;79;30552;-88
2020/12/20 04:11:03;;;;;;;36.93;21.45;;;;;;;6.52;68.49;101134.17;2408670;80;26133;-84
2020/12/20 04:14:32;;;;;;;35.95;21.82;;;;;;;6.52;68.50;101131.58;2400302;79;26136;-88
2020/12/20 04:18:15;;;;;;;39.30;21.10;;;;;;;6.53;68.50;101132.05;2424500;79;26226;-90
2020/12/20 04:21:38;;;;;;;36.38;22.13;;;;;;;6.53;68.52;101136.34;2461432;79;25593;-84
2020/12/20 04:25:01;;;;;;;39.10;22.50;;;;;;;6.53;68.52;101131.17;2408968;80;25795;-85
2020/12/20 04:28:40;;;;;;;39.98;23.12;;;;;;;6.54;68.54;101132.94;2403644;80;25810;-89
2020/12/20 04:32:20;;;;;;;35.52;20.77;;;;;;;6.54;68.54;101122.58;2494058;77;25649;-88
2020/12/20 04:35:55;;;;;;;32.53;20.05;;;;;;;6.54;68.54;101123.88;2498289;77;25719;-83
2020/12/20 04:39:35;;;;;;;37.33;22.40;;;;;;;6.53;68.54;101125.58;2517767;77;25660;-85
2020/12/20 04:43:38;;;;;;;37.93;22.73;;;;;;;6.54;68.53;101129.05;2430706;80;26368;-83
2020/12/20 04:47:40;;;;;;;34.80;21.25;;;;;;;6.54;68.56;101138.12;2494891;77;26119;-90
2020/12/20 05:02:10;;;;;;;36.83;22.97;;;;;;;6.55;68.60;101136.04;2432033;76;26524;-82
2020/12/20 05:05:33;;;;;;;;;;;;;;;6.52;68.60;101144.95;2331378;83;26198;-84
2020/12/20 05:09:09;;;;;;;31.42;18.98;;;;;;;6.51;68.59;101146.61;2361156;83;25707;-83
2020/12/20 05:12:39;;;;;;;34.43;20.02;;;;;;;6.50;68.60;101147.44;2325035;85;25543;-89
2020/12/20 05:16:05;;;;;;;;;;;;;;;6.52;68.61;101151.01;2373151;83;26001;-83
2020/12/20 05:19:35;;;;;;;33.42;18.82;;;;;;;6.51;68.61;101145.32;2276857;86;25842;-84
2020/12/20 05:23:08;;;;;;;32.08;20.55;;;;;;;6.51;68.63;101145.73;2271771;86;26068;-91
2020/12/20 05:27:11;;;;;;;40.25;23.50;;;;;;;6.51;68.63;101140.55;2254291;86;25782;-90
2020/12/20 05:54:10;;;;;;;32.10;20.73;;;;;;;6.55;68.70;101165.83;2561060;76;26677;-89
2020/12/20 05:57:36;;;;;;;34.15;20.37;;;;;;;6.50;68.69;101169.86;2516028;77;25637;-83
2020/12/20 06:01:04;;;;;;;33.23;20.35;;;;;;;6.51;68.70;101175.11;2510738;77;25573;-83
2020/12/20 06:05:02;;;;;;;34.73;20.80;;;;;;;6.52;68.71;101178.62;2493405;78;26201;-84
2020/12/20 06:08:47;;;;;;;28.65;18.90;;;;;;;6.53;68.70;101178.69;2481707;78;26154;-83
2020/12/20 06:12:37;;;;;;;29.27;18.60;;;;;;;6.55;68.70;101186.14;2388525;81;26223;-84
2020/12/20 06:16:08;;;;;;;37.20;22.27;;;;;;;6.56;68.70;101191.80;2397475;80;25969;-88
2020/12/20 06:24:07;;;;;;;32.10;19.57;;;;;;;6.59;68.71;101193.67;2405395;81;26201;-86
2020/12/20 06:27:36;;;;;;;33.38;20.05;;;;;;;6.60;68.72;101198.92;2384418;81;25901;-84
2020/12/20 06:35:37;;;;;;;32.75;19.37;;;;;;;6.63;68.71;101196.91;2392343;80;25726;-85
2020/12/20 06:39:08;;;;;;;35.92;21.15;;;;;;;6.63;68.72;101200.38;2494819;77;25929;-83
2020/12/20 06:42:40;;;;;;;30.75;19.67;;;;;;;6.65;68.70;101205.66;2485493;78;25980;-88
2020/12/20 06:47:09;;;;;;;33.58;21.10;;;;;;;6.66;68.71;101203.55;2458032;78;26611;-83
2020/12/20 06:50:48;;;;;;;31.68;19.92;;;;;;;6.66;68.70;101208.73;2388639;80;26039;-90
2020/12/20 06:54:34;;;;;;;36.05;23.10;;;;;;;6.67;68.69;101209.61;2485262;77;26295;-84
2020/12/20 06:58:08;;;;;;;33.48;21.62;;;;;;;6.68;68.69;101210.09;2473496;78;26162;-87
2020/12/20 07:02:07;;;;;;;38.23;21.02;;;;;;;6.67;68.69;101210.50;2485505;78;25814;-87
2020/12/20 07:05:45;;;;;;;33.38;20.90;;;;;;;6.70;68.66;101217.55;2381479;80;25746;-85
2020/12/20 07:13:07;;;;;;;38.40;22.15;;;;;;;6.68;68.68;101216.56;2396117;81;25662;-83
2020/12/20 07:17:40;;;;;;;32.55;21.37;;;;;;;6.71;68.67;101223.20;2153290;86;26252;-89
2020/12/20 07:21:41;;;;;;;35.70;23.42;;;;;;;6.71;68.68;101227.09;2134776;89;25712;-83
2020/12/20 07:25:08;;;;;;;37.83;21.73;;;;;;;6.72;68.67;101236.27;2142461;90;26163;-83
2020/12/20 07:28:31;;;;;;;37.83;22.05;;;;;;;6.72;68.64;101232.78;2142641;91;26078;-84
2020/12/20 07:36:27;;;;;;;35.33;22.07;;;;;;;6.72;68.67;101220.72;2185843;88;25824;-90
2020/12/20 07:40:32;;;;;;;35.00;21.93;;;;;;;6.73;68.66;101225.08;2285005;84;25734;-84
2020/12/20 07:55:00;;;;;;;34.20;20.50;;;;;;;6.77;68.67;101232.20;2472379;77;25630;-83
2020/12/20 07:58:21;;;;;;;37.60;23.83;;;;;;;6.74;68.68;101242.80;2473724;78;25782;-84
2020/12/20 08:01:46;;;;;;;29.20;20.62;;;;;;;6.74;68.68;101245.40;2462786;78;25698;-83
2020/12/20 08:05:11;;;;;;;32.53;20.92;;;;;;;6.75;68.67;101254.57;2473911;78;25815;-83
2020/12/20 08:08:59;;;;;;;35.92;21.93;;;;;;;6.77;68.65;101249.45;2424058;79;25747;-84
2020/12/20 08:12:20;;;;;;;34.10;20.60;;;;;;;6.77;68.66;101251.63;2467755;78;25661;-83
2020/12/20 08:16:08;;;;;;;34.95;21.07;;;;;;;6.79;68.67;101258.21;2245197;85;25707;-83
2020/12/20 08:20:40;;;;;;;35.33;21.53;;;;;;;6.86;68.66;101265.50;2567946;76;25582;-85
2020/12/20 08:24:02;;;;;;;33.38;21.02;;;;;;;6.80;68.66;101266.05;2401824;77;25819;-84
2020/12/20 08:27:42;;;;;;;32.85;20.88;;;;;;;6.83;68.65;101283.48;2396100;80;25724;-84
2020/12/20 08:31:55;;;;;;;38.08;21.93;;;;;;;6.83;68.65;101280.88;2438963;79;25686;-90
2020/12/20 08:35:27;;;;;;;31.97;19.95;;;;;;;6.83;68.63;101276.59;2449439;79;25861;-83
2020/12/20 08:38:55;;;;;;;35.88;20.72;;;;;;;6.84;68.63;101280.06;2445909;78;25668;-83
2020/12/20 08:42:18;;;;;;;35.48;22.65;;;;;;;6.84;68.63;101278.36;2407286;80;25686;-83
2020/12/20 08:50:00;;;;;;;34.90;21.02;;;;;;;6.85;68.62;101287.94;2344429;81;26284;-89
2020/12/20 08:54:05;;;;;;;38.15;22.17;;;;;;;6.88;68.61;101286.30;2311194;82;26095;-89
2020/12/20 08:57:29;;;;;;;37.13;22.70;;;;;;;6.88;68.61;101287.19;2317481;82;26170;-86
2020/12/20 09:00:56;;;;;;;39.35;23.95;;;;;;;6.89;68.59;101285.10;2359986;81;26077;-84
2020/12/20 09:04:37;;;;;;;38.10;23.70;;;;;;;6.90;68.59;101288.17;2296463;84;25908;-86
2020/12/20 09:08:00;;;;;;;35.10;22.90;;;;;;;6.93;68.59;101284.86;2320978;83;26573;-82
2020/12/20 09:11:57;;;;;;;41.65;24.15;;;;;;;6.93;68.57;101279.26;2368485;81;25872;-83
2020/12/20 09:26:32;;;;;;;39.13;23.63;;;;;;;7.02;68.57;101284.02;2402583;79;25934;-84
2020/12/20 09:40:09;;;;;;;37.15;22.75;;;;;;;7.01;68.53;101283.12;2282637;83;26131;-83
2020/12/20 09:54:29;;;;;;;38.67;22.57;;;;;;;7.10;68.52;101278.84;2462777;77;26107;-84
2020/12/20 09:58:12;;;;;;;41.58;24.25;;;;;;;7.05;68.52;101282.88;2464720;78;25672;-84
2020/12/20 10:01:35;;;;;;;40.12;23.75;;;;;;;7.08;68.52;101282.64;2450643;77;25980;-85
2020/12/20 10:04:58;;;;;;;36.85;24.02;;;;;;;7.09;68.52;101283.55;2463190;78;25864;-83
2020/12/20 10:08:31;;;;;;;37.00;23.73;;;;;;;7.10;68.52;101281.02;2467106;79;25985;-87
2020/12/20 10:11:52;;;;;;;42.05;25.23;;;;;;;7.11;68.51;101279.32;2473230;77;26173;-84
2020/12/20 10:15:14;;;;;;;41.58;24.15;;;;;;;7.12;68.51;101285.39;2406046;79;26035;-84
2020/12/20 10:18:41;;;;;;;44.20;25.10;;;;;;;7.13;68.49;101284.19;2452697;79;25722;-83
2020/12/20 10:22:03;;;;;;;44.88;23.92;;;;;;;7.13;68.48;101283.30;2468116;78;26012;-83
2020/12/20 10:25:42;;;;;;;40.17;23.20;;;;;;;7.15;68.48;101294.22;2494468;78;26033;-86
2020/12/20 10:29:06;;;;;;;35.98;22.42;;;;;;;7.17;68.46;101286.53;2423539;79;26022;-84
2020/12/20 10:37:34;;;;;;;34.98;21.80;;;;;;;7.20;68.40;101274.61;2412972;78;26130;-83
2020/12/20 10:40:55;;;;;;;37.13;23.18;;;;;;;7.22;68.40;101279.48;2403643;80;26063;-83
2020/12/20 10:49:07;;;;;;;36.65;22.62;;;;;;;7.24;68.35;101284.73;2403523;79;26184;-84
2020/12/20 10:52:28;;;;;;;40.67;23.45;;;;;;;7.25;68.33;101280.02;2417985;79;25700;-83
2020/12/20 10:55:50;;;;;;;35.80;20.65;;;;;;;7.29;68.31;101285.47;2391630;80;25754;-84
2020/12/20 10:59:32;;;;;;;33.35;20.32;;;;;;;7.31;68.24;101286.83;2442313;79;25738;-83
2020/12/20 11:03:07;;;;;;;29.50;19.62;;;;;;;7.32;68.22;101288.60;2426795;79;25689;-83
2020/12/20 11:07:03;;;;;;;31.07;20.05;;;;;;;7.36;68.17;101293.54;2286773;83;25923;-84
2020/12/20 11:10:34;;;;;;;37.65;20.82;;;;;;;7.36;68.14;101286.67;2303177;83;26113;-83
2020/12/20 11:14:02;;;;;;;33.73;20.15;;;;;;;7.38;68.09;101286.33;2215293;86;26520;-83
2020/12/20 11:17:34;;;;;;;34.08;19.52;;;;;;;7.40;68.02;101281.23;2198825;87;25894;-82
2020/12/20 11:21:02;;;;;;;26.42;18.02;;;;;;;7.40;67.96;101279.52;2206933;87;26226;-83
2020/12/20 11:25:10;;;;;;;29.77;18.75;;;;;;;7.41;67.90;101280.00;2282475;82;25993;-84
2020/12/20 11:28:31;;;;;;;27.65;18.55;;;;;;;7.43;67.84;101287.47;2334807;80;26174;-83
2020/12/20 11:32:06;;;;;;;24.65;16.70;;;;;;;7.44;67.79;101281.45;2336485;82;26129;-84
2020/12/20 11:40:03;;;;;;;18.85;14.78;;;;;;;7.46;67.69;101273.73;2410673;80;25933;-83
2020/12/20 11:43:38;;;;;;;27.10;16.90;;;;;;;7.45;67.63;101275.44;2411754;78;25789;-88
2020/12/20 11:46:59;;;;;;;22.85;16.12;;;;;;;7.47;67.59;101275.54;2407238;80;25946;-84
2020/12/20 11:50:35;;;;;;;24.67;16.20;;;;;;;7.47;67.58;101283.32;2403883;79;26135;-84
2020/12/20 11:54:05;;;;;;;26.52;17.45;;;;;;;7.46;67.55;101281.14;2383970;79;26446;-86
2020/12/20 11:57:55;;;;;;;23.55;17.12;;;;;;;7.47;67.53;101285.50;2391537;80;26109;-84
2020/12/20 12:01:24;;;;;;;23.55;16.65;;;;;;;7.46;67.50;101283.73;2406289;79;25761;-84
2020/12/20 12:04:46;;;;;;;26.55;17.50;;;;;;;7.45;67.47;101271.55;2408220;78;25681;-84
2020/12/20 12:22:23;;;;;;;27.00;18.75;;;;;;;7.44;67.47;101276.68;2392590;77;26425;-83
2020/12/20 12:25:45;;;;;;;34.33;21.48;;;;;;;7.40;67.49;101274.75;2397702;81;26143;-84
2020/12/20 12:29:07;;;;;;;35.43;20.77;;;;;;;7.39;67.50;101271.27;2370971;80;25734;-84
2020/12/20 12:32:28;;;;;;;40.08;22.90;;;;;;;7.39;67.49;101266.08;2374693;81;26184;-84
2020/12/20 12:36:05;;;;;;;43.55;22.98;;;;;;;7.38;67.50;101269.88;2397748;80;25818;-84
2020/12/20 12:39:26;;;;;;;41.30;26.12;;;;;;;7.36;67.52;101273.70;2387487;80;25810;-85
2020/12/20 12:42:48;;;;;;;42.80;25.08;;;;;;;7.34;67.52;101273.61;2390633;81;25838;-84
2020/12/20 12:46:29;;;;;;;44.88;25.45;;;;;;;7.32;67.52;101272.66;2357667;82;25707;-84
2020/12/20 12:50:02;;;;;;;47.15;26.12;;;;;;;7.31;67.54;101265.67;2370900;82;26326;-87
2020/12/20 12:53:42;;;;;;;51.65;28.55;;;;;;;7.30;67.53;101270.80;2238899;86;26495;-84
2020/12/20 12:57:24;;;;;;;49.15;26.95;;;;;;;7.28;67.55;101269.81;2235084;86;26014;-85
2020/12/20 13:01:06;;;;;;;46.05;27.75;;;;;;;7.25;67.55;101270.54;2236874;86;26311;-85
2020/12/20 13:04:35;;;;;;;52.55;29.18;;;;;;;7.23;67.54;101273.48;2247541;85;25834;-90
2020/12/20 13:08:53;;;;;;;55.20;30.08;;;;;;;7.22;67.55;101277.27;2214306;87;26160;-84
2020/12/20 13:13:36;;;;;;;48.38;28.47;;;;;;;7.18;67.55;101286.59;2216718;86;26133;-84
2020/12/20 13:17:09;;;;;;;50.52;28.40;;;;;;;7.18;67.58;101285.71;2230114;87;26087;-85
2020/12/20 13:20:44;;;;;;;54.55;30.23;;;;;;;7.16;67.57;101286.06;2244768;81;25870;-83
2020/12/20 13:25:14;;;;;;;44.93;26.75;;;;;;;7.15;67.59;101285.14;2237319;84;25781;-84
2020/12/20 13:38:23;;;;;;;;;;;;;;;;;;;;;
2020/12/20 15:00:56;;;;;;;30.50;20.12;;;;;;;6.61;67.42;101274.56;2336587;81;26195;-83
2020/12/20 15:29:53;;;;;;;37.50;24.35;;;;;;;6.48;67.45;101272.12;2316561;83;25765;-83
2020/12/20 15:33:28;;;;;;;36.30;22.58;;;;;;;6.48;67.45;101272.49;2325965;83;25675;-82
2020/12/20 15:37:31;;;;;;;39.67;24.82;;;;;;;6.48;67.45;101274.71;2335070;82;26405;-83
2020/12/20 16:14:59;;;;;;;48.68;29.45;;;;;;;6.37;67.40;101283.57;2319953;78;27026;-87
2020/12/20 16:19:45;;;;;;;55.40;30.08;;;;;;;6.35;67.39;101290.39;2288532;83;26193;-86
2020/12/20 16:33:56;;;;;;;45.55;27.17;;;;;;;6.29;67.32;101295.22;2216250;86;26071;-82
2020/12/20 17:01:47;;;;;;;48.52;28.57;;;;;;;6.26;67.28;101280.80;1866055;103;26104;-83
2020/12/20 17:16:30;;;;;;;54.93;29.83;;;;;;;6.24;67.18;101295.36;2407102;76;28747;-82
2020/12/20 17:43:35;;;;;;;49.10;27.82;;;;;;;6.13;67.17;101290.87;2385105;79;26111;-84
2020/12/20 17:47:01;;;;;;;46.63;27.35;;;;;;;6.13;67.17;101277.94;2394814;81;25953;-84
2020/12/20 17:50:56;;;;;;;57.60;27.73;;;;;;;6.14;68.45;101282.30;2277573;84;34959;-83
2020/12/20 17:54:55;;;;;;;43.63;27.10;;;;;;;6.10;68.91;101282.94;2284634;85;26192;-83
2020/12/20 17:58:55;;;;;;;53.45;29.98;;;;;;;6.06;69.19;101290.05;2281890;85;26491;-83
2020/12/20 18:02:19;;;;;;;46.92;28.35;;;;;;;6.00;68.91;101291.88;2270365;81;25811;-84
2020/12/20 18:05:49;;;;;;;41.20;24.25;;;;;;;5.93;69.00;101292.34;2272389;85;26360;-83
2020/12/20 18:09:11;;;;;;;40.15;25.62;;;;;;;5.88;69.39;101292.06;2309772;85;26252;-83
2020/12/20 18:12:41;;;;;;;44.77;28.50;;;;;;;5.87;69.85;101297.13;2285210;85;26098;-83
2020/12/20 18:34:27;;;;;;;41.50;24.60;;;;;;;5.60;69.64;101285.71;2300816;83;26854;-84
2020/12/20 19:28:11;;;;;;;31.90;20.77;;;;;;;5.24;69.08;101293.89;2183330;86;26115;-85
2020/12/20 19:54:54;;;;;;;29.55;20.23;;;;;;;5.49;68.95;101313.03;2248905;79;27759;-91
2020/12/20 20:35:40;;;;;;;28.07;19.10;;;;;;;5.67;69.68;101320.59;2474899;77;26358;-86
2020/12/20 20:39:30;;;;;;;29.30;19.85;;;;;;;5.64;69.62;101324.29;2505032;77;25647;-83
2020/12/20 20:47:56;;;;;;;25.50;17.25;;;;;;;5.63;69.48;101319.48;2491909;77;26137;-85
2020/12/20 20:51:27;;;;;;;27.05;17.70;;;;;;;5.62;69.45;101329.77;2314786;83;26218;-85
2020/12/20 20:54:57;;;;;;;30.55;18.35;;;;;;;5.61;69.38;101318.53;2316257;80;26271;-89
2020/12/20 20:58:18;;;;;;;25.05;17.40;;;;;;;5.62;69.34;101329.36;2327373;83;25709;-84
2020/12/20 21:06:30;;;;;;;22.20;15.10;;;;;;;5.59;69.23;101325.30;2288867;84;25998;-87
2020/12/20 21:09:52;;;;;;;23.25;16.17;;;;;;;5.59;69.18;101324.00;2424381;78;26039;-85
2020/12/20 21:13:41;;;;;;;22.42;15.45;;;;;;;5.59;69.13;101330.88;2463294;76;26099;-88
2020/12/20 21:17:20;;;;;;;22.17;15.63;;;;;;;5.59;69.07;101338.63;2458346;78;25735;-86
2020/12/20 21:20:51;;;;;;;;;;;;;;;5.58;69.06;101336.45;2462861;79;26201;-85
2020/12/20 21:28:31;;;;;;;20.92;15.75;;;;;;;5.60;69.00;101333.94;2465640;76;25855;-86
2020/12/20 21:32:00;;;;;;;20.70;14.95;;;;;;;5.60;68.96;101332.64;2475397;78;25816;-88
2020/12/20 21:35:56;;;;;;;22.70;15.63;;;;;;;5.60;68.95;101335.23;2467093;78;25984;-87
2020/12/20 21:39:26;;;;;;;20.72;15.08;;;;;;;5.63;68.95;101346.66;2471704;78;25864;-84
2020/12/20 21:42:51;;;;;;;19.52;14.38;;;;;;;5.64;68.94;101344.58;2499535;77;26026;-88
2020/12/20 21:47:03;;;;;;;19.20;14.05;;;;;;;5.64;68.89;101339.41;2332991;81;26246;-86
2020/12/20 23:33:01;;;;;;;19.85;14.18;;;;;;;5.63;68.11;101303.08;2343803;78;26523;-88
2020/12/20 23:37:27;;;;;;;20.68;14.95;;;;;;;5.63;68.11;101300.09;2096825;92;26096;-84
2020/12/20 23:45:33;;;;;;;19.95;13.98;;;;;;;5.64;68.04;101295.84;2133952;88;25828;-84
2020/12/20 23:54:21;;;;;;;21.97;15.78;;;;;;;5.66;68.02;101296.39;2157418;85;25888;-87
2020/12/20 23:57:58;;;;;;;18.35;14.10;;;;;;;5.68;68.01;101282.27;2306601;83;26147;-83
